Time;durP1;ratioP1;P1;durP2;ratioP2;P2;SDS_P1;SDS_P2;PMS_P1;PMS_P2;Temp;Humidity;BMP_temperature;BMP_pressure;BME280_temperature;BME280_humidity;BME280_pressure;Samples;Min_cycle;Max_cycle;Signal;HPM_P1;HPM_P2
2022/11/12 00:00:24;;;;;;;9.57;2.75;;;;;;;;;;5114923;28;20030;-61
2022/11/12 00:02:50;;;;;;;3.80;2.05;;;;;;;;;;5114844;28;20410;-61
2022/11/12 00:05:17;;;;;;;7.07;2.40;;;;;;;;;;5114787;28;20080;-61
2022/11/12 00:07:43;;;;;;;3.75;2.20;;;;;;;;;;5115000;28;20061;-61
2022/11/12 00:10:10;;;;;;;6.80;2.65;;;;;;;;;;5114796;28;20016;-62
2022/11/12 00:12:36;;;;;;;6.18;2.60;;;;;;;;;;5114652;28;20506;-61
2022/11/12 00:15:03;;;;;;;6.82;2.30;;;;;;;;;;5114952;28;20034;-62
2022/11/12 00:17:29;;;;;;;3.17;2.58;;;;;;;;;;5114625;28;20012;-62
2022/11/12 00:19:56;;;;;;;3.47;2.50;;;;;;;;;;5114110;28;20088;-61
2022/11/12 00:22:22;;;;;;;4.18;2.40;;;;;;;;;;5114541;28;20031;-61
2022/11/12 00:24:48;;;;;;;6.25;2.38;;;;;;;;;;5114703;28;20023;-61
2022/11/12 00:27:15;;;;;;;8.40;2.63;;;;;;;;;;5096433;28;20035;-61
2022/11/12 00:29:41;;;;;;;6.75;2.80;;;;;;;;;;5114082;28;20028;-61
2022/11/12 00:32:08;;;;;;;11.30;2.55;;;;;;;;;;5114389;28;20040;-61
2022/11/12 00:34:34;;;;;;;5.15;2.33;;;;;;;;;;5114023;28;20029;-61
2022/11/12 00:37:01;;;;;;;6.35;2.35;;;;;;;;;;5114319;28;20401;-59
2022/11/12 00:39:28;;;;;;;6.30;2.20;;;;;;;;;;5113987;28;20032;-60
2022/11/12 00:41:54;;;;;;;4.80;2.25;;;;;;;;;;5113501;28;20027;-61
2022/11/12 00:44:20;;;;;;;8.73;2.40;;;;;;;;;;5111886;28;20012;-61
2022/11/12 00:46:46;;;;;;;6.82;2.47;;;;;;;;;;5097815;28;20019;-61
2022/11/12 00:49:13;;;;;;;9.02;2.40;;;;;;;;;;5095479;28;20040;-61
2022/11/12 00:51:39;;;;;;;6.20;2.15;;;;;;;;;;5113727;28;20076;-61
2022/11/12 00:54:06;;;;;;;10.48;2.70;;;;;;;;;;5113739;28;20040;-61
2022/11/12 00:56:32;;;;;;;2.45;2.10;;;;;;;;;;5113853;28;20020;-61
2022/11/12 00:58:59;;;;;;;4.32;2.28;;;;;;;;;;5114012;28;20026;-61
2022/11/12 01:01:25;;;;;;;2.67;2.00;;;;;;;;;;5113691;28;20457;-61
2022/11/12 01:03:52;;;;;;;7.32;2.15;;;;;;;;;;5113295;28;20437;-61
2022/11/12 01:06:20;;;;;;;4.40;2.13;;;;;;;;;;5113534;28;20024;-61
2022/11/12 01:08:47;;;;;;;2.67;2.05;;;;;;;;;;5113447;28;20008;-62
2022/11/12 01:11:15;;;;;;;5.18;2.10;;;;;;;;;;5113294;28;20031;-61
2022/11/12 01:13:42;;;;;;;5.40;2.00;;;;;;;;;;5113147;28;20036;-62
2022/11/12 01:16:13;;;;;;;6.00;2.10;;;;;;;;;;5095342;28;20016;-62
2022/11/12 01:18:39;;;;;;;3.97;2.13;;;;;;;;;;5113102;28;20490;-61
2022/11/12 01:21:07;;;;;;;5.45;2.50;;;;;;;;;;5113639;28;20030;-61
2022/11/12 01:23:34;;;;;;;8.02;2.60;;;;;;;;;;5113142;28;20045;-61
2022/11/12 01:26:04;;;;;;;3.65;2.22;;;;;;;;;;5113307;28;20015;-61
2022/11/12 01:28:30;;;;;;;5.75;2.20;;;;;;;;;;5113073;28;20511;-61
2022/11/12 01:30:56;;;;;;;4.95;2.28;;;;;;;;;;5112668;28;20033;-61
2022/11/12 01:33:23;;;;;;;3.28;2.17;;;;;;;;;;5113050;28;20054;-61
2022/11/12 01:35:49;;;;;;;2.63;1.95;;;;;;;;;;5112934;28;20019;-61
2022/11/12 01:38:15;;;;;;;6.82;2.20;;;;;;;;;;5112971;28;20046;-61
2022/11/12 01:40:42;;;;;;;3.97;2.10;;;;;;;;;;5113152;28;20032;-61
2022/11/12 01:43:12;;;;;;;3.95;2.17;;;;;;;;;;5113297;28;20026;-61
2022/11/12 01:45:44;;;;;;;4.90;2.30;;;;;;;;;;5099305;28;20400;-61
2022/11/12 01:48:18;;;;;;;10.27;2.33;;;;;;;;;;5108671;28;20262;-61
2022/11/12 01:50:44;;;;;;;4.78;2.05;;;;;;;;;;5112842;28;20019;-61
2022/11/12 01:53:12;;;;;;;5.40;1.90;;;;;;;;;;5111777;28;20442;-61
2022/11/12 01:55:38;;;;;;;6.45;2.67;;;;;;;;;;5113003;28;20020;-61
2022/11/12 01:58:08;;;;;;;6.93;2.38;;;;;;;;;;5112767;28;20035;-61
2022/11/12 02:00:35;;;;;;;5.53;2.90;;;;;;;;;;5094092;28;20026;-61
2022/11/12 02:03:02;;;;;;;4.18;2.20;;;;;;;;;;5112866;28;20024;-61
2022/11/12 02:05:30;;;;;;;5.72;2.47;;;;;;;;;;5112608;28;20496;-61
2022/11/12 02:07:57;;;;;;;3.17;2.08;;;;;;;;;;5112834;28;20022;-61
2022/11/12 02:10:23;;;;;;;6.95;2.40;;;;;;;;;;5112833;28;20032;-61
2022/11/12 02:15:37;;;;;;;5.25;2.28;;;;;;;;;;5112611;28;20031;-61
2022/11/12 02:18:04;;;;;;;4.38;2.25;;;;;;;;;;5112472;28;20046;-61
2022/11/12 02:20:34;;;;;;;3.42;2.28;;;;;;;;;;5112499;28;20503;-61
2022/11/12 02:23:00;;;;;;;4.53;2.10;;;;;;;;;;5112731;28;20030;-61
2022/11/12 02:25:26;;;;;;;4.07;2.25;;;;;;;;;;5112640;28;20022;-61
2022/11/12 02:27:54;;;;;;;3.85;2.67;;;;;;;;;;5112351;28;20024;-61
2022/11/12 02:30:30;;;;;;;4.63;2.72;;;;;;;;;;5111938;28;20016;-61
2022/11/12 02:32:57;;;;;;;6.20;2.60;;;;;;;;;;5112235;28;20042;-61
2022/11/12 02:35:24;;;;;;;6.20;2.72;;;;;;;;;;5112349;28;20032;-61
2022/11/12 02:37:50;;;;;;;8.32;2.90;;;;;;;;;;5112254;28;20411;-61
2022/11/12 02:40:17;;;;;;;4.43;2.40;;;;;;;;;;5112243;28;20020;-61
2022/11/12 02:42:43;;;;;;;4.22;2.20;;;;;;;;;;5112391;28;20492;-61
2022/11/12 02:45:09;;;;;;;8.70;2.20;;;;;;;;;;5110479;28;20026;-61
2022/11/12 02:47:36;;;;;;;3.70;2.50;;;;;;;;;;5111850;28;20024;-61
2022/11/12 02:50:03;;;;;;;2.85;2.38;;;;;;;;;;5112224;28;20099;-61
2022/11/12 02:52:29;;;;;;;6.55;2.58;;;;;;;;;;5112025;28;20043;-61
2022/11/12 02:54:55;;;;;;;4.03;2.30;;;;;;;;;;5112256;28;20538;-61
2022/11/12 02:57:22;;;;;;;5.15;2.45;;;;;;;;;;5112626;28;20028;-61
2022/11/12 02:59:48;;;;;;;3.53;2.20;;;;;;;;;;5111709;28;20097;-61
2022/11/12 03:02:14;;;;;;;6.78;2.83;;;;;;;;;;5112213;28;20038;-61
2022/11/12 03:04:41;;;;;;;6.63;2.47;;;;;;;;;;5112988;28;20030;-61
2022/11/12 03:07:07;;;;;;;5.88;2.78;;;;;;;;;;5097776;28;20026;-61
2022/11/12 03:09:34;;;;;;;4.32;2.45;;;;;;;;;;5115840;28;20565;-60
2022/11/12 03:12:00;;;;;;;3.70;2.47;;;;;;;;;;5115960;28;20038;-61
2022/11/12 03:14:26;;;;;;;6.47;2.60;;;;;;;;;;5115565;28;20064;-61
2022/11/12 03:16:53;;;;;;;5.28;2.47;;;;;;;;;;5097587;28;20020;-61
2022/11/12 03:19:19;;;;;;;4.05;2.72;;;;;;;;;;5115995;28;20026;-61
2022/11/12 03:21:45;;;;;;;8.90;2.78;;;;;;;;;;5115655;28;20384;-61
2022/11/12 03:24:11;;;;;;;4.78;2.30;;;;;;;;;;5097263;28;20049;-62
2022/11/12 03:26:38;;;;;;;5.85;3.05;;;;;;;;;;5115539;28;20496;-61
2022/11/12 03:29:04;;;;;;;3.38;2.40;;;;;;;;;;5115119;28;20024;-61
2022/11/12 03:31:30;;;;;;;3.97;2.63;;;;;;;;;;5115314;28;20016;-61
2022/11/12 03:33:57;;;;;;;4.85;2.28;;;;;;;;;;5097194;28;20416;-61
2022/11/12 03:36:23;;;;;;;4.00;2.45;;;;;;;;;;5097164;28;20043;-61
2022/11/12 03:38:49;;;;;;;4.40;2.47;;;;;;;;;;5115363;28;20488;-61
2022/11/12 03:41:16;;;;;;;3.22;2.40;;;;;;;;;;5114891;28;20392;-60
2022/11/12 03:43:42;;;;;;;3.58;2.20;;;;;;;;;;5115100;28;20034;-61
2022/11/12 03:46:08;;;;;;;4.20;2.58;;;;;;;;;;5097768;28;20046;-61
2022/11/12 03:48:35;;;;;;;7.05;2.75;;;;;;;;;;5114156;28;20487;-61
2022/11/12 03:51:01;;;;;;;5.20;2.70;;;;;;;;;;5114948;28;20403;-61
2022/11/12 03:53:27;;;;;;;7.63;3.17;;;;;;;;;;5115075;28;20039;-61
2022/11/12 03:55:54;;;;;;;7.18;2.92;;;;;;;;;;5114626;28;20027;-61
2022/11/12 03:58:20;;;;;;;5.38;2.80;;;;;;;;;;5115179;28;20031;-61
2022/11/12 04:00:46;;;;;;;4.15;2.40;;;;;;;;;;5114977;28;20023;-61
2022/11/12 04:03:13;;;;;;;3.92;2.67;;;;;;;;;;5114539;28;20042;-61
2022/11/12 04:08:37;;;;;;;4.72;2.42;;;;;;;;;;5114706;28;20012;-61
2022/11/12 04:11:06;;;;;;;6.22;2.10;;;;;;;;;;5114561;28;20023;-61
2022/11/12 04:13:32;;;;;;;4.38;2.75;;;;;;;;;;5114449;28;20046;-61
2022/11/12 04:21:50;;;;;;;4.20;2.30;;;;;;;;;;5114397;28;20027;-61
2022/11/12 04:27:25;;;;;;;6.15;2.55;;;;;;;;;;5114539;28;20020;-61
2022/11/12 04:32:39;;;;;;;4.15;2.35;;;;;;;;;;5114178;28;20042;-61
2022/11/12 04:35:07;;;;;;;5.22;2.25;;;;;;;;;;5114006;28;20023;-61
2022/11/12 04:37:44;;;;;;;5.13;2.28;;;;;;;;;;5114121;28;20057;-61
2022/11/12 04:45:47;;;;;;;6.50;2.72;;;;;;;;;;5100017;28;20019;-61
2022/11/12 04:48:14;;;;;;;5.47;2.70;;;;;;;;;;5110001;28;20391;-61
2022/11/12 04:50:41;;;;;;;4.75;2.28;;;;;;;;;;5113931;28;20019;-61
2022/11/12 04:53:08;;;;;;;3.60;2.47;;;;;;;;;;5113780;28;20496;-61
2022/11/12 04:55:34;;;;;;;3.80;2.60;;;;;;;;;;5113715;28;20032;-61
2022/11/12 04:58:01;;;;;;;4.85;2.45;;;;;;;;;;5113812;28;20020;-61
2022/11/12 05:00:27;;;;;;;4.95;2.63;;;;;;;;;;5113550;28;20051;-61
2022/11/12 05:02:53;;;;;;;5.70;2.50;;;;;;;;;;5113901;28;20020;-61
2022/11/12 05:05:20;;;;;;;3.58;2.58;;;;;;;;;;5113790;28;20026;-61
2022/11/12 05:07:46;;;;;;;3.90;2.55;;;;;;;;;;5113588;28;20023;-61
2022/11/12 05:10:12;;;;;;;4.93;2.67;;;;;;;;;;5113190;28;20022;-61
2022/11/12 05:12:39;;;;;;;4.63;2.50;;;;;;;;;;5113282;28;20035;-61
2022/11/12 05:15:05;;;;;;;3.72;2.90;;;;;;;;;;5113439;28;20442;-61
2022/11/12 05:17:32;;;;;;;3.85;2.63;;;;;;;;;;5113303;28;20489;-61
2022/11/12 05:19:58;;;;;;;3.38;2.65;;;;;;;;;;5113579;28;20043;-61
2022/11/12 05:22:24;;;;;;;4.50;3.00;;;;;;;;;;5113224;28;20023;-62
2022/11/12 05:24:50;;;;;;;5.80;3.20;;;;;;;;;;5094651;28;20019;-61
2022/11/12 05:27:19;;;;;;;6.28;2.95;;;;;;;;;;5113131;28;20023;-61
2022/11/12 05:29:45;;;;;;;10.65;3.28;;;;;;;;;;5112992;28;20019;-61
2022/11/12 05:32:13;;;;;;;11.50;4.30;;;;;;;;;;5113073;28;20027;-61
2022/11/12 05:34:39;;;;;;;4.43;3.00;;;;;;;;;;5112981;28;20027;-61
2022/11/12 05:37:06;;;;;;;5.70;3.13;;;;;;;;;;5112927;28;20047;-61
2022/11/12 05:39:33;;;;;;;6.80;3.10;;;;;;;;;;5112703;28;20026;-62
2022/11/12 05:41:59;;;;;;;4.00;3.03;;;;;;;;;;5112834;28;20100;-61
2022/11/12 05:44:26;;;;;;;6.70;3.05;;;;;;;;;;5110223;28;20039;-61
2022/11/12 05:46:52;;;;;;;5.13;3.35;;;;;;;;;;5097791;28;20020;-61
2022/11/12 05:49:18;;;;;;;6.22;3.55;;;;;;;;;;5112921;28;20388;-61
2022/11/12 05:51:45;;;;;;;8.80;3.75;;;;;;;;;;5112484;28;20023;-61
2022/11/12 05:54:11;;;;;;;6.75;3.80;;;;;;;;;;5094521;28;20034;-61
2022/11/12 05:56:38;;;;;;;6.47;3.50;;;;;;;;;;5112802;28;20034;-61
2022/11/12 05:59:06;;;;;;;5.00;3.28;;;;;;;;;;5112971;28;20024;-61
2022/11/12 06:01:33;;;;;;;4.95;3.40;;;;;;;;;;5112928;28;20067;-61
2022/11/12 06:03:59;;;;;;;4.88;3.58;;;;;;;;;;5112596;28;20022;-61
2022/11/12 06:06:26;;;;;;;8.40;3.90;;;;;;;;;;5112145;28;20030;-60
2022/11/12 06:08:52;;;;;;;6.40;3.70;;;;;;;;;;5112943;28;20147;-61
2022/11/12 06:11:18;;;;;;;5.55;3.72;;;;;;;;;;5112749;28;20038;-61
2022/11/12 06:13:45;;;;;;;5.60;3.50;;;;;;;;;;5112336;28;20039;-61
2022/11/12 06:16:11;;;;;;;4.07;3.03;;;;;;;;;;5112435;28;20030;-61
2022/11/12 06:18:37;;;;;;;6.15;3.20;;;;;;;;;;5112565;28;20022;-61
2022/11/12 06:21:23;;;;;;;6.70;3.30;;;;;;;;;;5112126;28;20012;-61
2022/11/12 06:23:50;;;;;;;4.03;2.95;;;;;;;;;;5112357;28;20488;-61
2022/11/12 06:26:17;;;;;;;6.43;3.03;;;;;;;;;;5112506;28;20030;-61
2022/11/12 06:28:43;;;;;;;5.75;2.90;;;;;;;;;;5112388;28;20502;-61
2022/11/12 06:31:09;;;;;;;4.25;2.72;;;;;;;;;;5112328;28;20530;-61
2022/11/12 06:33:36;;;;;;;3.35;2.67;;;;;;;;;;5112263;28;20100;-61
2022/11/12 06:36:04;;;;;;;4.45;2.78;;;;;;;;;;5112223;28;20012;-61
2022/11/12 06:38:30;;;;;;;4.70;3.10;;;;;;;;;;5112046;28;20392;-61
2022/11/12 06:40:57;;;;;;;6.35;2.97;;;;;;;;;;5115112;28;20479;-61
2022/11/12 06:43:24;;;;;;;3.70;2.80;;;;;;;;;;5116300;28;20019;-61
2022/11/12 06:45:50;;;;;;;3.42;2.72;;;;;;;;;;5101698;28;20024;-61
2022/11/12 06:48:16;;;;;;;5.75;2.88;;;;;;;;;;5094698;28;20019;-61
2022/11/12 06:50:43;;;;;;;5.85;2.95;;;;;;;;;;5116000;28;20085;-61
2022/11/12 06:53:09;;;;;;;6.15;2.95;;;;;;;;;;5097813;28;20036;-61
2022/11/12 06:55:35;;;;;;;5.90;3.30;;;;;;;;;;5116289;28;20048;-61
2022/11/12 06:58:02;;;;;;;8.50;3.67;;;;;;;;;;5116096;28;20086;-61
2022/11/12 07:00:28;;;;;;;4.10;3.17;;;;;;;;;;5116046;28;20026;-61
2022/11/12 07:02:54;;;;;;;5.72;3.17;;;;;;;;;;5116072;28;20034;-61
2022/11/12 07:05:21;;;;;;;5.72;3.17;;;;;;;;;;5115897;28;20023;-61
2022/11/12 07:07:47;;;;;;;4.18;3.05;;;;;;;;;;5115856;28;20488;-61
2022/11/12 07:10:13;;;;;;;4.50;2.78;;;;;;;;;;5115822;28;20016;-61
2022/11/12 07:12:39;;;;;;;6.10;2.80;;;;;;;;;;5115630;28;20431;-61
2022/11/12 07:15:06;;;;;;;7.88;2.50;;;;;;;;;;5115758;28;20020;-61
2022/11/12 07:17:32;;;;;;;3.92;2.42;;;;;;;;;;5115745;28;20484;-61
2022/11/12 07:19:59;;;;;;;4.75;2.70;;;;;;;;;;5115392;28;20018;-61
2022/11/12 07:22:26;;;;;;;5.78;2.72;;;;;;;;;;5097583;28;20032;-61
2022/11/12 07:24:52;;;;;;;4.28;2.65;;;;;;;;;;5115600;28;20028;-61
2022/11/12 07:27:18;;;;;;;6.10;2.38;;;;;;;;;;5115516;28;20365;-61
2022/11/12 07:29:45;;;;;;;4.85;2.42;;;;;;;;;;5115701;28;20027;-61
2022/11/12 07:32:11;;;;;;;3.38;2.40;;;;;;;;;;5115247;28;20023;-61
2022/11/12 07:34:38;;;;;;;3.70;2.00;;;;;;;;;;5115221;28;20016;-61
2022/11/12 07:37:04;;;;;;;3.65;2.10;;;;;;;;;;5115399;28;20054;-61
2022/11/12 07:39:30;;;;;;;4.75;2.00;;;;;;;;;;5115167;28;20080;-61
2022/11/12 07:41:57;;;;;;;6.18;2.00;;;;;;;;;;5115744;28;20036;-61
2022/11/12 07:44:23;;;;;;;2.55;1.80;;;;;;;;;;5112511;28;20020;-61
2022/11/12 07:46:49;;;;;;;4.60;2.05;;;;;;;;;;5099503;28;20030;-61
2022/11/12 07:49:16;;;;;;;2.35;1.90;;;;;;;;;;5114950;28;20020;-61
2022/11/12 07:51:42;;;;;;;4.15;2.10;;;;;;;;;;5113939;28;20027;-61
2022/11/12 07:54:08;;;;;;;3.53;1.92;;;;;;;;;;5115120;28;20024;-61
2022/11/12 07:56:35;;;;;;;5.30;2.40;;;;;;;;;;5115043;28;20023;-61
2022/11/12 07:59:01;;;;;;;4.45;2.15;;;;;;;;;;5115076;28;20032;-61
2022/11/12 08:01:35;;;;;;;3.58;1.90;;;;;;;;;;5115064;28;20018;-61
2022/11/12 08:04:01;;;;;;;3.35;1.88;;;;;;;;;;5114440;28;20024;-61
2022/11/12 08:06:29;;;;;;;3.08;2.22;;;;;;;;;;5114758;28;20029;-62
2022/11/12 08:08:55;;;;;;;3.42;2.00;;;;;;;;;;5115246;28;20478;-61
2022/11/12 08:11:22;;;;;;;2.03;1.70;;;;;;;;;;5114970;28;20019;-62
2022/11/12 08:13:49;;;;;;;2.65;2.05;;;;;;;;;;5114512;28;20047;-61
2022/11/12 08:16:15;;;;;;;5.15;2.00;;;;;;;;;;5114888;28;20019;-61
2022/11/12 08:18:42;;;;;;;2.58;1.58;;;;;;;;;;5114507;28;20030;-62
2022/11/12 08:21:10;;;;;;;2.20;2.00;;;;;;;;;;5114500;28;20038;-61
2022/11/12 08:23:37;;;;;;;2.50;1.70;;;;;;;;;;5114560;28;20027;-62
2022/11/12 08:26:04;;;;;;;2.20;1.60;;;;;;;;;;5114484;28;20071;-62
2022/11/12 08:28:31;;;;;;;1.73;1.52;;;;;;;;;;5114781;28;20479;-61
2022/11/12 08:31:02;;;;;;;3.00;1.55;;;;;;;;;;5114752;28;20093;-61
2022/11/12 08:33:28;;;;;;;5.07;2.07;;;;;;;;;;5113945;28;20031;-61
2022/11/12 08:35:54;;;;;;;2.70;1.80;;;;;;;;;;5114371;28;20250;-61
2022/11/12 08:38:21;;;;;;;2.67;1.70;;;;;;;;;;5114012;28;20381;-62
2022/11/12 08:40:47;;;;;;;4.32;2.00;;;;;;;;;;5114099;28;20028;-62
2022/11/12 08:43:13;;;;;;;2.28;1.65;;;;;;;;;;5113942;28;20030;-62
2022/11/12 08:45:40;;;;;;;2.10;1.60;;;;;;;;;;5100591;28;20416;-60
2022/11/12 08:48:13;;;;;;;2.08;1.77;;;;;;;;;;5108943;28;20024;-60
2022/11/12 08:50:39;;;;;;;2.63;1.15;;;;;;;;;;5114115;28;20023;-62
2022/11/12 08:53:07;;;;;;;2.42;1.30;;;;;;;;;;5113835;28;20484;-61
2022/11/12 08:55:34;;;;;;;5.85;1.50;;;;;;;;;;5114118;28;20031;-61
2022/11/12 08:58:01;;;;;;;5.22;2.08;;;;;;;;;;5114097;28;20073;-62
2022/11/12 09:00:28;;;;;;;2.33;1.58;;;;;;;;;;5113472;28;20031;-62
2022/11/12 09:02:54;;;;;;;5.35;2.28;;;;;;;;;;5113517;28;20020;-62
2022/11/12 09:05:21;;;;;;;4.22;2.20;;;;;;;;;;5113908;28;20020;-62
2022/11/12 09:07:47;;;;;;;5.88;4.18;;;;;;;;;;5113743;28;20030;-61
2022/11/12 09:10:13;;;;;;;5.28;3.78;;;;;;;;;;5113700;28;20487;-62
2022/11/12 09:12:40;;;;;;;5.57;3.70;;;;;;;;;;5113695;28;20076;-62
2022/11/12 09:15:06;;;;;;;4.22;2.53;;;;;;;;;;5113041;28;20034;-62
2022/11/12 09:17:34;;;;;;;1.90;1.77;;;;;;;;;;5113586;28;20032;-62
2022/11/12 09:20:00;;;;;;;3.70;1.90;;;;;;;;;;5113364;28;20026;-61
2022/11/12 09:22:26;;;;;;;2.95;1.98;;;;;;;;;;5113097;28;20102;-62
2022/11/12 09:24:53;;;;;;;4.32;1.92;;;;;;;;;;5113196;28;20076;-62
2022/11/12 09:27:19;;;;;;;4.18;1.98;;;;;;;;;;5113284;28;20403;-62
2022/11/12 09:29:46;;;;;;;3.22;1.80;;;;;;;;;;5112995;28;20072;-62
2022/11/12 09:32:12;;;;;;;4.60;1.73;;;;;;;;;;5112838;28;20037;-62
2022/11/12 09:34:38;;;;;;;4.50;1.88;;;;;;;;;;5113306;28;20023;-62
2022/11/12 09:37:05;;;;;;;4.65;2.28;;;;;;;;;;5112786;28;20050;-62
2022/11/12 09:39:31;;;;;;;4.13;2.20;;;;;;;;;;5113065;28;20061;-62
2022/11/12 09:41:58;;;;;;;3.45;1.75;;;;;;;;;;5112732;28;20052;-62
2022/11/12 09:44:25;;;;;;;3.03;1.42;;;;;;;;;;5109803;28;20032;-62
2022/11/12 09:46:51;;;;;;;3.53;1.60;;;;;;;;;;5097661;28;20034;-62
2022/11/12 09:49:23;;;;;;;4.70;1.60;;;;;;;;;;5112918;28;20399;-62
2022/11/12 09:51:50;;;;;;;3.28;1.70;;;;;;;;;;5112782;28;20020;-62
2022/11/12 09:54:20;;;;;;;3.95;1.70;;;;;;;;;;5112694;28;20046;-62
2022/11/12 09:56:48;;;;;;;5.45;2.45;;;;;;;;;;5112781;28;20024;-62
2022/11/12 09:59:14;;;;;;;5.03;1.77;;;;;;;;;;5112268;28;20020;-62
2022/11/12 10:01:56;;;;;;;3.05;1.80;;;;;;;;;;5112533;28;20476;-62
2022/11/12 10:04:28;;;;;;;2.10;1.55;;;;;;;;;;5112574;28;20016;-62
2022/11/12 10:06:59;;;;;;;2.90;1.65;;;;;;;;;;5094498;28;20020;-62
2022/11/12 10:09:30;;;;;;;3.28;1.80;;;;;;;;;;5112695;28;20393;-62
2022/11/12 10:14:47;;;;;;;2.08;1.60;;;;;;;;;;5111552;28;20506;-62
2022/11/12 10:17:32;;;;;;;7.22;1.40;;;;;;;;;;5111329;28;20511;-62
2022/11/12 10:20:05;;;;;;;1.92;1.05;;;;;;;;;;5103507;28;20063;-62
2022/11/12 10:22:31;;;;;;;2.17;1.40;;;;;;;;;;5092098;28;20050;-63
2022/11/12 10:24:59;;;;;;;2.20;1.33;;;;;;;;;;5091663;28;20012;-62
2022/11/12 10:27:31;;;;;;;4.15;1.40;;;;;;;;;;5092116;28;20097;-62
2022/11/12 10:29:57;;;;;;;4.43;1.40;;;;;;;;;;5074165;28;20032;-62
2022/11/12 10:32:24;;;;;;;2.05;1.50;;;;;;;;;;5091742;28;20024;-62
2022/11/12 10:34:50;;;;;;;12.25;1.95;;;;;;;;;;5092449;28;20033;-62
2022/11/12 10:37:40;;;;;;;1.80;1.50;;;;;;;;;;5091953;28;20515;-62
2022/11/12 10:40:26;;;;;;;6.35;1.42;;;;;;;;;;5079181;28;20044;-62
2022/11/12 10:42:57;;;;;;;2.92;1.40;;;;;;;;;;5091564;28;20026;-62
2022/11/12 10:45:23;;;;;;;2.33;1.13;;;;;;;;;;5091771;28;20404;-62
2022/11/12 10:47:50;;;;;;;4.07;1.55;;;;;;;;;;5105030;28;20380;-62
2022/11/12 10:50:19;;;;;;;7.20;1.48;;;;;;;;;;5112309;28;20034;-62
2022/11/12 10:52:59;;;;;;;4.00;1.13;;;;;;;;;;5111939;28;20040;-62
2022/11/12 10:55:28;;;;;;;2.37;1.30;;;;;;;;;;5112213;28;20020;-62
2022/11/12 10:58:15;;;;;;;1.30;1.08;;;;;;;;;;5112169;28;20373;-62
2022/11/12 11:01:08;;;;;;;3.80;1.30;;;;;;;;;;5112248;28;20012;-62
2022/11/12 11:03:35;;;;;;;1.60;1.00;;;;;;;;;;5107716;28;20048;-63
2022/11/12 11:06:04;;;;;;;3.70;1.30;;;;;;;;;;5112121;28;20395;-63
2022/11/12 11:08:34;;;;;;;4.63;1.30;;;;;;;;;;5112084;28;20028;-62
2022/11/12 11:11:00;;;;;;;;;;;;;;;;;;5111996;28;20050;-62
2022/11/12 11:13:27;;;;;;;3.55;1.65;;;;;;;;;;5093700;28;19924;-63
2022/11/12 11:16:04;;;;;;;1.63;1.20;;;;;;;;;;5111953;28;20024;-62
2022/11/12 11:18:32;;;;;;;3.70;1.60;;;;;;;;;;5111941;28;20382;-63
2022/11/12 11:21:17;;;;;;;8.57;3.95;;;;;;;;;;5111838;28;20505;-62
2022/11/12 11:23:53;;;;;;;6.93;4.30;;;;;;;;;;5110790;28;20031;-62
2022/11/12 11:26:19;;;;;;;3.95;3.08;;;;;;;;;;5113109;28;20076;-62
2022/11/12 11:29:09;;;;;;;3.97;2.60;;;;;;;;;;5115581;28;20035;-63
2022/11/12 11:31:44;;;;;;;2.40;1.80;;;;;;;;;;5032860;28;20046;-63
2022/11/12 11:34:17;;;;;;;58.67;40.08;;;;;;;;;;5032553;28;20038;-62
2022/11/12 11:36:46;;;;;;;6.88;4.03;;;;;;;;;;5032716;28;20046;-62
2022/11/12 11:39:20;;;;;;;1.55;1.42;;;;;;;;;;5032384;28;20043;-63
2022/11/12 11:41:52;;;;;;;4.60;2.53;;;;;;;;;;5032044;28;20022;-62
2022/11/12 11:44:28;;;;;;;1.30;1.17;;;;;;;;;;5032373;28;20544;-63
2022/11/12 11:46:58;;;;;;;4.93;3.55;;;;;;;;;;5032213;28;20464;-63
2022/11/12 11:49:24;;;;;;;1.88;1.42;;;;;;;;;;5032532;28;20045;-63
2022/11/12 11:51:53;;;;;;;3.08;1.33;;;;;;;;;;5032205;28;20426;-63
2022/11/12 11:54:43;;;;;;;3.10;2.05;;;;;;;;;;5015312;28;20064;-63
2022/11/12 11:57:21;;;;;;;3.95;2.80;;;;;;;;;;5022508;28;20564;-62
2022/11/12 12:00:00;;;;;;;2.45;1.27;;;;;;;;;;5032296;28;20034;-63
2022/11/12 12:02:26;;;;;;;1.02;1.00;;;;;;;;;;5032127;28;20033;-63
2022/11/12 12:05:22;;;;;;;1.52;1.05;;;;;;;;;;5015611;28;20036;-63
2022/11/12 12:07:54;;;;;;;1.95;1.10;;;;;;;;;;5026940;28;20039;-63
2022/11/12 12:10:31;;;;;;;2.45;1.10;;;;;;;;;;5094011;28;20020;-63
2022/11/12 12:13:04;;;;;;;0.95;0.75;;;;;;;;;;5094142;28;20030;-62
2022/11/12 12:15:30;;;;;;;1.85;1.10;;;;;;;;;;5094192;28;20501;-63
2022/11/12 12:18:18;;;;;;;1.23;0.98;;;;;;;;;;5094498;28;20032;-63
2022/11/12 12:20:50;;;;;;;2.28;1.05;;;;;;;;;;5094107;28;20034;-62
2022/11/12 12:23:19;;;;;;;3.65;0.82;;;;;;;;;;5093940;28;20022;-62
2022/11/12 12:25:47;;;;;;;2.47;1.08;;;;;;;;;;5094100;28;20032;-63
2022/11/12 12:28:13;;;;;;;2.47;1.10;;;;;;;;;;5093955;28;20020;-62
2022/11/12 12:30:42;;;;;;;1.00;0.95;;;;;;;;;;5093954;28;20024;-63
2022/11/12 12:33:23;;;;;;;1.33;1.00;;;;;;;;;;5093900;28;20039;-63
2022/11/12 12:35:59;;;;;;;1.33;1.17;;;;;;;;;;5075596;28;20039;-63
2022/11/12 12:38:31;;;;;;;1.23;0.80;;;;;;;;;;5092449;28;20032;-63
2022/11/12 12:41:10;;;;;;;1.10;1.00;;;;;;;;;;5093734;28;20489;-63
2022/11/12 12:43:40;;;;;;;1.63;1.10;;;;;;;;;;5093651;28;20024;-63
2022/11/12 12:46:06;;;;;;;4.78;1.60;;;;;;;;;;5110661;28;20109;-63
2022/11/12 12:48:34;;;;;;;1.33;0.90;;;;;;;;;;5113771;28;20023;-63
2022/11/12 12:51:01;;;;;;;2.05;1.00;;;;;;;;;;5113973;28;20038;-63
2022/11/12 12:53:27;;;;;;;1.50;1.10;;;;;;;;;;5095336;28;20046;-63
2022/11/12 12:56:14;;;;;;;2.55;1.02;;;;;;;;;;5113834;28;20033;-63
2022/11/12 12:58:40;;;;;;;1.48;1.10;;;;;;;;;;5011367;28;20045;-62
2022/11/12 13:01:27;;;;;;;3.03;0.80;;;;;;;;;;5011178;28;20470;-63
2022/11/12 13:03:53;;;;;;;1.10;1.00;;;;;;;;;;5010969;28;20044;-63
2022/11/12 13:06:22;;;;;;;0.93;0.90;;;;;;;;;;5011231;28;20040;-62
2022/11/12 13:09:00;;;;;;;1.75;1.17;;;;;;;;;;5011272;28;20026;-63
2022/11/12 13:14:38;;;;;;;0.88;0.70;;;;;;;;;;5010956;28;20081;-63
2022/11/12 13:17:09;;;;;;;0.85;0.85;;;;;;;;;;4994626;28;20041;-63
2022/11/12 13:19:36;;;;;;;1.38;1.10;;;;;;;;;;5011128;28;20037;-63
2022/11/12 13:22:25;;;;;;;1.23;1.10;;;;;;;;;;5010630;28;20517;-63
2022/11/12 13:25:10;;;;;;;2.03;1.00;;;;;;;;;;5002209;28;20492;-63
2022/11/12 13:27:39;;;;;;;3.03;1.20;;;;;;;;;;5010679;28;20104;-63
2022/11/12 13:30:17;;;;;;;0.95;0.90;;;;;;;;;;5010906;28;20030;-63
2022/11/12 13:32:53;;;;;;;1.17;0.60;;;;;;;;;;5010634;28;20080;-63
2022/11/12 13:35:22;;;;;;;1.30;0.90;;;;;;;;;;5042790;28;20039;-63
2022/11/12 13:37:51;;;;;;;1.27;0.80;;;;;;;;;;5112667;28;20073;-63
2022/11/12 13:40:25;;;;;;;2.78;0.80;;;;;;;;;;5113118;28;20050;-63
2022/11/12 13:42:52;;;;;;;0.77;0.77;;;;;;;;;;5113158;28;20020;-63
2022/11/12 13:45:23;;;;;;;1.55;0.70;;;;;;;;;;5102658;28;20024;-63
2022/11/12 13:47:50;;;;;;;1.65;0.52;;;;;;;;;;5105726;28;20026;-63
2022/11/12 13:50:18;;;;;;;1.10;0.77;;;;;;;;;;5094493;28;20383;-64
2022/11/12 13:52:44;;;;;;;0.60;0.60;;;;;;;;;;5112891;28;20019;-63
2022/11/12 13:55:18;;;;;;;0.50;0.50;;;;;;;;;;5112910;28;20039;-63
2022/11/12 13:57:50;;;;;;;0.88;0.60;;;;;;;;;;5112683;28;20066;-63
2022/11/12 14:00:20;;;;;;;0.57;0.50;;;;;;;;;;5112629;28;20492;-63
2022/11/12 14:02:49;;;;;;;2.80;0.50;;;;;;;;;;5112859;28;20019;-63
2022/11/12 14:05:17;;;;;;;0.50;0.50;;;;;;;;;;5112043;28;20030;-63
2022/11/12 14:08:04;;;;;;;1.65;0.60;;;;;;;;;;5112574;28;20036;-63
2022/11/12 14:10:42;;;;;;;2.40;0.50;;;;;;;;;;5010056;28;20034;-63
2022/11/12 14:13:09;;;;;;;0.50;0.50;;;;;;;;;;5009927;28;20194;-62
2022/11/12 14:15:53;;;;;;;1.10;0.57;;;;;;;;;;4993916;28;20038;-63
2022/11/12 14:18:25;;;;;;;0.90;0.40;;;;;;;;;;5010365;28;20034;-62
2022/11/12 14:20:52;;;;;;;0.40;0.40;;;;;;;;;;5009842;28;20025;-62
2022/11/12 14:23:20;;;;;;;2.67;0.55;;;;;;;;;;5009930;28;20105;-62
2022/11/12 14:25:47;;;;;;;0.75;0.50;;;;;;;;;;5009978;28;20034;-63
2022/11/12 14:28:29;;;;;;;1.65;0.40;;;;;;;;;;5010057;28;20042;-62
2022/11/12 14:30:56;;;;;;;0.40;0.40;;;;;;;;;;5010227;28;20018;-63
2022/11/12 14:33:25;;;;;;;1.33;0.50;;;;;;;;;;5010148;28;20034;-62
2022/11/12 14:35:52;;;;;;;0.35;0.35;;;;;;;;;;5009738;28;20034;-62
2022/11/12 14:38:30;;;;;;;1.15;0.40;;;;;;;;;;5010285;28;20033;-62
2022/11/12 14:40:58;;;;;;;0.40;0.40;;;;;;;;;;5010354;28;20085;-62
2022/11/12 14:43:36;;;;;;;2.72;0.60;;;;;;;;;;5012763;28;20705;-62
2022/11/12 14:46:04;;;;;;;0.98;0.50;;;;;;;;;;5029776;28;20026;-62
2022/11/12 14:48:33;;;;;;;2.15;0.40;;;;;;;;;;5094899;28;20053;-62
2022/11/12 14:51:10;;;;;;;1.15;0.60;;;;;;;;;;5112096;28;20016;-62
2022/11/12 14:53:43;;;;;;;0.60;0.50;;;;;;;;;;5112185;28;20035;-62
2022/11/12 14:56:14;;;;;;;0.93;0.60;;;;;;;;;;5112315;28;20030;-62
2022/11/12 14:58:40;;;;;;;0.63;0.40;;;;;;;;;;5112364;28;20022;-62
2022/11/12 15:01:22;;;;;;;0.60;0.60;;;;;;;;;;5113282;28;20042;-62
2022/11/12 15:03:48;;;;;;;0.50;0.50;;;;;;;;;;5115609;28;20015;-62
2022/11/12 15:06:18;;;;;;;0.88;0.47;;;;;;;;;;5116024;28;20377;-62
2022/11/12 15:08:55;;;;;;;0.63;0.50;;;;;;;;;;5116022;28;20026;-62
2022/11/12 15:11:30;;;;;;;0.70;0.52;;;;;;;;;;5116045;28;20034;-61
2022/11/12 15:14:00;;;;;;;0.45;0.40;;;;;;;;;;5115942;28;20500;-62
2022/11/12 15:16:35;;;;;;;2.40;0.50;;;;;;;;;;5116187;28;20026;-62
2022/11/12 15:19:14;;;;;;;0.52;0.50;;;;;;;;;;5115470;28;20034;-62
2022/11/12 15:21:48;;;;;;;1.05;0.60;;;;;;;;;;5093952;28;20024;-62